sensor_id;sensor_type;location;lat;lon;timestamp;P1;durP1;ratioP1;P2;durP2;ratioP2
17614;SDS011;8926;49.720;6.576;2022-07-18T00:01:28;0.60;;;0.60;;
17614;SDS011;8926;49.720;6.576;2022-07-18T00:03:53;0.57;;;0.50;;
17614;SDS011;8926;49.720;6.576;2022-07-18T00:06:18;0.90;;;0.67;;
17614;SDS011;8926;49.720;6.576;2022-07-18T00:08:44;0.70;;;0.60;;
17614;SDS011;8926;49.720;6.576;2022-07-18T00:11:09;0.77;;;0.50;;
17614;SDS011;8926;49.720;6.576;2022-07-18T00:13:35;0.47;;;0.47;;
17614;SDS011;8926;49.720;6.576;2022-07-18T00:16:00;0.60;;;0.60;;
17614;SDS011;8926;49.720;6.576;2022-07-18T00:18:25;0.43;;;0.43;;
17614;SDS011;8926;49.720;6.576;2022-07-18T00:20:51;0.50;;;0.50;;
17614;SDS011;8926;49.720;6.576;2022-07-18T00:23:16;0.63;;;0.60;;
17614;SDS011;8926;49.720;6.576;2022-07-18T00:25:41;0.50;;;0.50;;
17614;SDS011;8926;49.720;6.576;2022-07-18T00:28:07;0.47;;;0.47;;
17614;SDS011;8926;49.720;6.576;2022-07-18T00:30:32;0.50;;;0.50;;
17614;SDS011;8926;49.720;6.576;2022-07-18T00:32:57;0.60;;;0.50;;
17614;SDS011;8926;49.720;6.576;2022-07-18T00:35:23;0.70;;;0.70;;
17614;SDS011;8926;49.720;6.576;2022-07-18T00:37:48;0.63;;;0.60;;
17614;SDS011;8926;49.720;6.576;2022-07-18T00:40:13;0.50;;;0.50;;
17614;SDS011;8926;49.720;6.576;2022-07-18T00:42:39;0.70;;;0.70;;
17614;SDS011;8926;49.720;6.576;2022-07-18T00:45:04;0.60;;;0.60;;
17614;SDS011;8926;49.720;6.576;2022-07-18T00:47:30;0.50;;;0.50;;
17614;SDS011;8926;49.720;6.576;2022-07-18T00:49:55;1.20;;;0.60;;
17614;SDS011;8926;49.720;6.576;2022-07-18T00:52:21;0.70;;;0.60;;
17614;SDS011;8926;49.720;6.576;2022-07-18T00:54:46;0.70;;;0.60;;
17614;SDS011;8926;49.720;6.576;2022-07-18T00:57:12;0.47;;;0.47;;
17614;SDS011;8926;49.720;6.576;2022-07-18T00:59:37;0.60;;;0.50;;
17614;SDS011;8926;49.720;6.576;2022-07-18T01:02:33;0.63;;;0.53;;
17614;SDS011;8926;49.720;6.576;2022-07-18T01:04:58;0.60;;;0.60;;
17614;SDS011;8926;49.720;6.576;2022-07-18T01:07:24;0.40;;;0.40;;
17614;SDS011;8926;49.720;6.576;2022-07-18T01:09:49;0.70;;;0.70;;
17614;SDS011;8926;49.720;6.576;2022-07-18T01:12:15;0.43;;;0.43;;
17614;SDS011;8926;49.720;6.576;2022-07-18T01:14:40;0.33;;;0.33;;
17614;SDS011;8926;49.720;6.576;2022-07-18T01:17:16;0.57;;;0.57;;
17614;SDS011;8926;49.720;6.576;2022-07-18T01:19:42;0.50;;;0.50;;
17614;SDS011;8926;49.720;6.576;2022-07-18T01:22:08;0.50;;;0.50;;
17614;SDS011;8926;49.720;6.576;2022-07-18T01:24:35;0.60;;;0.50;;
17614;SDS011;8926;49.720;6.576;2022-07-18T01:27:02;0.60;;;0.60;;
17614;SDS011;8926;49.720;6.576;2022-07-18T01:29:27;0.60;;;0.60;;
17614;SDS011;8926;49.720;6.576;2022-07-18T01:31:52;0.40;;;0.40;;
17614;SDS011;8926;49.720;6.576;2022-07-18T01:34:21;0.60;;;0.60;;
17614;SDS011;8926;49.720;6.576;2022-07-18T01:36:47;0.53;;;0.53;;
17614;SDS011;8926;49.720;6.576;2022-07-18T01:39:13;0.70;;;0.70;;
17614;SDS011;8926;49.720;6.576;2022-07-18T01:41:38;0.50;;;0.50;;
17614;SDS011;8926;49.720;6.576;2022-07-18T01:44:04;1.03;;;0.60;;
17614;SDS011;8926;49.720;6.576;2022-07-18T01:46:29;0.60;;;0.60;;
17614;SDS011;8926;49.720;6.576;2022-07-18T01:48:54;0.57;;;0.40;;
17614;SDS011;8926;49.720;6.576;2022-07-18T01:51:20;0.50;;;0.50;;
17614;SDS011;8926;49.720;6.576;2022-07-18T01:53:53;0.80;;;0.80;;
17614;SDS011;8926;49.720;6.576;2022-07-18T01:56:24;0.57;;;0.57;;
17614;SDS011;8926;49.720;6.576;2022-07-18T01:58:49;0.60;;;0.60;;
17614;SDS011;8926;49.720;6.576;2022-07-18T02:01:15;1.60;;;0.60;;
17614;SDS011;8926;49.720;6.576;2022-07-18T02:03:41;0.50;;;0.50;;
17614;SDS011;8926;49.720;6.576;2022-07-18T02:06:06;0.40;;;0.40;;
17614;SDS011;8926;49.720;6.576;2022-07-18T02:08:32;0.40;;;0.40;;
17614;SDS011;8926;49.720;6.576;2022-07-18T02:10:57;0.63;;;0.40;;
17614;SDS011;8926;49.720;6.576;2022-07-18T02:13:22;0.63;;;0.60;;
17614;SDS011;8926;49.720;6.576;2022-07-18T02:15:48;0.57;;;0.53;;
17614;SDS011;8926;49.720;6.576;2022-07-18T02:18:13;0.60;;;0.60;;
17614;SDS011;8926;49.720;6.576;2022-07-18T02:20:38;0.53;;;0.50;;
17614;SDS011;8926;49.720;6.576;2022-07-18T02:23:04;0.60;;;0.60;;
17614;SDS011;8926;49.720;6.576;2022-07-18T02:25:29;0.90;;;0.60;;
17614;SDS011;8926;49.720;6.576;2022-07-18T02:27:55;0.73;;;0.70;;
17614;SDS011;8926;49.720;6.576;2022-07-18T02:30:20;0.50;;;0.50;;
17614;SDS011;8926;49.720;6.576;2022-07-18T02:32:46;0.60;;;0.60;;
17614;SDS011;8926;49.720;6.576;2022-07-18T02:35:12;0.93;;;0.70;;
17614;SDS011;8926;49.720;6.576;2022-07-18T02:37:37;0.47;;;0.47;;
17614;SDS011;8926;49.720;6.576;2022-07-18T02:40:04;0.60;;;0.60;;
17614;SDS011;8926;49.720;6.576;2022-07-18T02:42:31;0.60;;;0.60;;
17614;SDS011;8926;49.720;6.576;2022-07-18T02:44:56;0.50;;;0.50;;
17614;SDS011;8926;49.720;6.576;2022-07-18T02:47:22;0.47;;;0.47;;
17614;SDS011;8926;49.720;6.576;2022-07-18T02:49:47;0.57;;;0.57;;
17614;SDS011;8926;49.720;6.576;2022-07-18T02:52:12;0.60;;;0.60;;
17614;SDS011;8926;49.720;6.576;2022-07-18T02:54:38;1.27;;;0.53;;
17614;SDS011;8926;49.720;6.576;2022-07-18T02:57:04;0.80;;;0.70;;
17614;SDS011;8926;49.720;6.576;2022-07-18T02:59:29;0.50;;;0.50;;
17614;SDS011;8926;49.720;6.576;2022-07-18T03:01:55;0.50;;;0.50;;
17614;SDS011;8926;49.720;6.576;2022-07-18T03:04:21;0.50;;;0.50;;
17614;SDS011;8926;49.720;6.576;2022-07-18T03:06:47;1.90;;;0.60;;
17614;SDS011;8926;49.720;6.576;2022-07-18T03:09:14;0.60;;;0.60;;
17614;SDS011;8926;49.720;6.576;2022-07-18T03:11:39;0.90;;;0.70;;
17614;SDS011;8926;49.720;6.576;2022-07-18T03:14:05;0.57;;;0.40;;
17614;SDS011;8926;49.720;6.576;2022-07-18T03:16:30;1.30;;;0.80;;
17614;SDS011;8926;49.720;6.576;2022-07-18T03:18:55;0.60;;;0.50;;
17614;SDS011;8926;49.720;6.576;2022-07-18T03:21:21;0.67;;;0.67;;
17614;SDS011;8926;49.720;6.576;2022-07-18T03:23:46;0.50;;;0.50;;
17614;SDS011;8926;49.720;6.576;2022-07-18T03:26:12;0.60;;;0.57;;
17614;SDS011;8926;49.720;6.576;2022-07-18T03:28:37;1.03;;;0.80;;
17614;SDS011;8926;49.720;6.576;2022-07-18T03:31:03;0.80;;;0.60;;
17614;SDS011;8926;49.720;6.576;2022-07-18T03:33:28;1.23;;;0.83;;
17614;SDS011;8926;49.720;6.576;2022-07-18T03:35:54;0.47;;;0.47;;
17614;SDS011;8926;49.720;6.576;2022-07-18T03:38:19;0.60;;;0.60;;
17614;SDS011;8926;49.720;6.576;2022-07-18T03:40:45;1.03;;;0.60;;
17614;SDS011;8926;49.720;6.576;2022-07-18T03:43:10;1.43;;;0.60;;
17614;SDS011;8926;49.720;6.576;2022-07-18T03:45:36;0.50;;;0.50;;
17614;SDS011;8926;49.720;6.576;2022-07-18T03:48:01;0.60;;;0.50;;
17614;SDS011;8926;49.720;6.576;2022-07-18T03:50:27;0.60;;;0.60;;
17614;SDS011;8926;49.720;6.576;2022-07-18T03:52:52;0.87;;;0.50;;
17614;SDS011;8926;49.720;6.576;2022-07-18T03:55:18;0.50;;;0.50;;
17614;SDS011;8926;49.720;6.576;2022-07-18T03:57:43;0.60;;;0.60;;
17614;SDS011;8926;49.720;6.576;2022-07-18T04:00:09;0.60;;;0.60;;
17614;SDS011;8926;49.720;6.576;2022-07-18T04:02:42;0.57;;;0.57;;
17614;SDS011;8926;49.720;6.576;2022-07-18T04:05:09;1.03;;;0.73;;
17614;SDS011;8926;49.720;6.576;2022-07-18T04:07:35;0.93;;;0.80;;
17614;SDS011;8926;49.720;6.576;2022-07-18T04:10:00;0.80;;;0.80;;
17614;SDS011;8926;49.720;6.576;2022-07-18T04:12:26;0.80;;;0.80;;
17614;SDS011;8926;49.720;6.576;2022-07-18T04:14:52;0.50;;;0.50;;
17614;SDS011;8926;49.720;6.576;2022-07-18T04:17:17;0.50;;;0.50;;
17614;SDS011;8926;49.720;6.576;2022-07-18T04:19:42;0.60;;;0.60;;
17614;SDS011;8926;49.720;6.576;2022-07-18T04:22:07;0.60;;;0.60;;
17614;SDS011;8926;49.720;6.576;2022-07-18T04:24:33;0.60;;;0.60;;
17614;SDS011;8926;49.720;6.576;2022-07-18T04:26:59;0.57;;;0.57;;
17614;SDS011;8926;49.720;6.576;2022-07-18T04:29:24;0.47;;;0.40;;
17614;SDS011;8926;49.720;6.576;2022-07-18T04:31:49;0.50;;;0.50;;
17614;SDS011;8926;49.720;6.576;2022-07-18T04:34:14;0.63;;;0.63;;
17614;SDS011;8926;49.720;6.576;2022-07-18T04:36:40;0.40;;;0.40;;
17614;SDS011;8926;49.720;6.576;2022-07-18T04:39:05;0.60;;;0.60;;
17614;SDS011;8926;49.720;6.576;2022-07-18T04:41:30;0.30;;;0.30;;
17614;SDS011;8926;49.720;6.576;2022-07-18T04:43:56;0.50;;;0.50;;
17614;SDS011;8926;49.720;6.576;2022-07-18T04:46:21;0.50;;;0.50;;
17614;SDS011;8926;49.720;6.576;2022-07-18T04:48:47;0.60;;;0.60;;
17614;SDS011;8926;49.720;6.576;2022-07-18T04:51:12;0.50;;;0.50;;
17614;SDS011;8926;49.720;6.576;2022-07-18T04:53:37;0.40;;;0.40;;
17614;SDS011;8926;49.720;6.576;2022-07-18T04:56:03;0.50;;;0.50;;
17614;SDS011;8926;49.720;6.576;2022-07-18T04:58:28;0.60;;;0.50;;
17614;SDS011;8926;49.720;6.576;2022-07-18T05:00:53;0.50;;;0.50;;
17614;SDS011;8926;49.720;6.576;2022-07-18T05:03:20;0.50;;;0.50;;
17614;SDS011;8926;49.720;6.576;2022-07-18T05:05:46;0.60;;;0.60;;
17614;SDS011;8926;49.720;6.576;2022-07-18T05:08:11;5.40;;;0.80;;
17614;SDS011;8926;49.720;6.576;2022-07-18T05:10:37;0.57;;;0.57;;
17614;SDS011;8926;49.720;6.576;2022-07-18T05:13:02;0.70;;;0.60;;
17614;SDS011;8926;49.720;6.576;2022-07-18T05:15:27;0.57;;;0.57;;
17614;SDS011;8926;49.720;6.576;2022-07-18T05:17:53;0.60;;;0.60;;
17614;SDS011;8926;49.720;6.576;2022-07-18T05:20:20;0.60;;;0.60;;
17614;SDS011;8926;49.720;6.576;2022-07-18T05:22:47;1.43;;;0.90;;
17614;SDS011;8926;49.720;6.576;2022-07-18T05:25:12;0.50;;;0.50;;
17614;SDS011;8926;49.720;6.576;2022-07-18T05:27:39;0.57;;;0.57;;
17614;SDS011;8926;49.720;6.576;2022-07-18T05:30:05;0.87;;;0.87;;
17614;SDS011;8926;49.720;6.576;2022-07-18T05:32:32;0.47;;;0.43;;
17614;SDS011;8926;49.720;6.576;2022-07-18T05:34:57;0.60;;;0.60;;
17614;SDS011;8926;49.720;6.576;2022-07-18T05:37:22;0.50;;;0.50;;
17614;SDS011;8926;49.720;6.576;2022-07-18T05:39:48;1.30;;;0.50;;
17614;SDS011;8926;49.720;6.576;2022-07-18T05:42:16;0.60;;;0.60;;
17614;SDS011;8926;49.720;6.576;2022-07-18T05:44:42;0.50;;;0.50;;
17614;SDS011;8926;49.720;6.576;2022-07-18T05:47:07;0.50;;;0.50;;
17614;SDS011;8926;49.720;6.576;2022-07-18T05:52:02;2.00;;;0.80;;
17614;SDS011;8926;49.720;6.576;2022-07-18T05:54:28;1.13;;;0.80;;
17614;SDS011;8926;49.720;6.576;2022-07-18T05:56:53;0.60;;;0.60;;
17614;SDS011;8926;49.720;6.576;2022-07-18T05:59:20;1.47;;;0.73;;
17614;SDS011;8926;49.720;6.576;2022-07-18T06:01:45;0.93;;;0.90;;
17614;SDS011;8926;49.720;6.576;2022-07-18T06:04:11;1.03;;;0.80;;
17614;SDS011;8926;49.720;6.576;2022-07-18T06:06:37;0.80;;;0.80;;
17614;SDS011;8926;49.720;6.576;2022-07-18T06:09:02;0.90;;;0.90;;
17614;SDS011;8926;49.720;6.576;2022-07-18T06:11:28;1.00;;;0.90;;
17614;SDS011;8926;49.720;6.576;2022-07-18T06:13:54;1.47;;;0.93;;
17614;SDS011;8926;49.720;6.576;2022-07-18T06:16:19;1.10;;;1.00;;
17614;SDS011;8926;49.720;6.576;2022-07-18T06:18:44;0.90;;;0.90;;
17614;SDS011;8926;49.720;6.576;2022-07-18T06:21:10;0.87;;;0.70;;
17614;SDS011;8926;49.720;6.576;2022-07-18T06:23:35;0.80;;;0.80;;
17614;SDS011;8926;49.720;6.576;2022-07-18T06:26:01;1.20;;;1.03;;
17614;SDS011;8926;49.720;6.576;2022-07-18T06:28:27;0.80;;;0.80;;
17614;SDS011;8926;49.720;6.576;2022-07-18T06:30:53;1.20;;;0.77;;
17614;SDS011;8926;49.720;6.576;2022-07-18T06:33:19;0.80;;;0.80;;
17614;SDS011;8926;49.720;6.576;2022-07-18T06:35:44;1.23;;;0.90;;
17614;SDS011;8926;49.720;6.576;2022-07-18T06:38:11;0.90;;;0.90;;
17614;SDS011;8926;49.720;6.576;2022-07-18T06:40:37;1.40;;;1.03;;
17614;SDS011;8926;49.720;6.576;2022-07-18T06:43:02;1.13;;;1.00;;
17614;SDS011;8926;49.720;6.576;2022-07-18T06:45:27;0.70;;;0.70;;
17614;SDS011;8926;49.720;6.576;2022-07-18T06:47:53;1.10;;;0.93;;
17614;SDS011;8926;49.720;6.576;2022-07-18T06:50:18;0.70;;;0.70;;
17614;SDS011;8926;49.720;6.576;2022-07-18T06:52:43;1.00;;;0.90;;
17614;SDS011;8926;49.720;6.576;2022-07-18T06:55:10;1.10;;;0.70;;
17614;SDS011;8926;49.720;6.576;2022-07-18T06:57:37;1.00;;;0.83;;
17614;SDS011;8926;49.720;6.576;2022-07-18T07:00:03;0.60;;;0.60;;
17614;SDS011;8926;49.720;6.576;2022-07-18T07:02:30;0.47;;;0.47;;
17614;SDS011;8926;49.720;6.576;2022-07-18T07:04:55;1.30;;;1.17;;
17614;SDS011;8926;49.720;6.576;2022-07-18T07:07:20;1.03;;;0.80;;
17614;SDS011;8926;49.720;6.576;2022-07-18T07:09:46;1.07;;;0.90;;
17614;SDS011;8926;49.720;6.576;2022-07-18T07:12:11;1.20;;;1.10;;
17614;SDS011;8926;49.720;6.576;2022-07-18T07:14:37;2.10;;;0.90;;
17614;SDS011;8926;49.720;6.576;2022-07-18T07:17:02;0.90;;;0.80;;
17614;SDS011;8926;49.720;6.576;2022-07-18T07:19:28;0.60;;;0.60;;
17614;SDS011;8926;49.720;6.576;2022-07-18T07:21:54;2.37;;;0.90;;
17614;SDS011;8926;49.720;6.576;2022-07-18T07:24:19;1.37;;;1.10;;
17614;SDS011;8926;49.720;6.576;2022-07-18T07:26:44;1.13;;;0.80;;
17614;SDS011;8926;49.720;6.576;2022-07-18T07:29:10;1.60;;;1.10;;
17614;SDS011;8926;49.720;6.576;2022-07-18T07:31:35;2.43;;;1.20;;
17614;SDS011;8926;49.720;6.576;2022-07-18T07:34:00;1.10;;;1.00;;
17614;SDS011;8926;49.720;6.576;2022-07-18T07:36:26;1.47;;;1.10;;
17614;SDS011;8926;49.720;6.576;2022-07-18T07:38:51;1.10;;;1.00;;
17614;SDS011;8926;49.720;6.576;2022-07-18T07:41:16;1.37;;;0.90;;
17614;SDS011;8926;49.720;6.576;2022-07-18T07:43:42;1.20;;;1.10;;
17614;SDS011;8926;49.720;6.576;2022-07-18T07:46:07;1.27;;;0.80;;
17614;SDS011;8926;49.720;6.576;2022-07-18T07:48:32;1.20;;;1.10;;
17614;SDS011;8926;49.720;6.576;2022-07-18T07:50:58;1.00;;;0.97;;
17614;SDS011;8926;49.720;6.576;2022-07-18T07:53:23;4.40;;;1.33;;
17614;SDS011;8926;49.720;6.576;2022-07-18T07:55:48;0.97;;;0.77;;
17614;SDS011;8926;49.720;6.576;2022-07-18T07:58:14;1.00;;;0.80;;
17614;SDS011;8926;49.720;6.576;2022-07-18T08:00:39;5.20;;;1.90;;
17614;SDS011;8926;49.720;6.576;2022-07-18T08:03:05;1.30;;;1.20;;
17614;SDS011;8926;49.720;6.576;2022-07-18T08:05:34;1.57;;;0.97;;
17614;SDS011;8926;49.720;6.576;2022-07-18T08:08:02;1.30;;;1.00;;
17614;SDS011;8926;49.720;6.576;2022-07-18T08:10:29;1.23;;;0.90;;
17614;SDS011;8926;49.720;6.576;2022-07-18T08:12:55;1.57;;;0.87;;
17614;SDS011;8926;49.720;6.576;2022-07-18T08:15:21;0.90;;;0.90;;
17614;SDS011;8926;49.720;6.576;2022-07-18T08:17:47;3.67;;;1.50;;
17614;SDS011;8926;49.720;6.576;2022-07-18T08:20:12;2.60;;;1.30;;
17614;SDS011;8926;49.720;6.576;2022-07-18T08:25:30;0.83;;;0.83;;
17614;SDS011;8926;49.720;6.576;2022-07-18T08:27:57;1.13;;;0.90;;
17614;SDS011;8926;49.720;6.576;2022-07-18T08:30:23;1.53;;;0.80;;
17614;SDS011;8926;49.720;6.576;2022-07-18T08:32:48;1.93;;;0.90;;
17614;SDS011;8926;49.720;6.576;2022-07-18T08:35:14;2.00;;;1.20;;
17614;SDS011;8926;49.720;6.576;2022-07-18T08:37:39;1.50;;;1.00;;
17614;SDS011;8926;49.720;6.576;2022-07-18T08:40:05;1.00;;;0.97;;
17614;SDS011;8926;49.720;6.576;2022-07-18T08:42:32;1.70;;;1.00;;
17614;SDS011;8926;49.720;6.576;2022-07-18T08:44:59;1.47;;;1.03;;
17614;SDS011;8926;49.720;6.576;2022-07-18T08:47:24;1.40;;;1.10;;
17614;SDS011;8926;49.720;6.576;2022-07-18T08:49:52;1.50;;;1.40;;
17614;SDS011;8926;49.720;6.576;2022-07-18T08:52:18;1.20;;;1.10;;
17614;SDS011;8926;49.720;6.576;2022-07-18T08:54:44;1.33;;;0.90;;
17614;SDS011;8926;49.720;6.576;2022-07-18T08:57:10;1.00;;;0.83;;
17614;SDS011;8926;49.720;6.576;2022-07-18T08:59:35;1.20;;;1.10;;
17614;SDS011;8926;49.720;6.576;2022-07-18T09:02:01;4.07;;;1.50;;
17614;SDS011;8926;49.720;6.576;2022-07-18T09:04:37;2.03;;;1.10;;
17614;SDS011;8926;49.720;6.576;2022-07-18T09:07:02;4.60;;;1.40;;
17614;SDS011;8926;49.720;6.576;2022-07-18T09:09:29;1.00;;;0.90;;
17614;SDS011;8926;49.720;6.576;2022-07-18T09:11:56;1.43;;;0.80;;
17614;SDS011;8926;49.720;6.576;2022-07-18T09:17:12;1.37;;;1.00;;
17614;SDS011;8926;49.720;6.576;2022-07-18T09:19:48;1.30;;;1.00;;
17614;SDS011;8926;49.720;6.576;2022-07-18T09:22:23;1.47;;;1.10;;
17614;SDS011;8926;49.720;6.576;2022-07-18T09:30:13;1.90;;;0.80;;
17614;SDS011;8926;49.720;6.576;2022-07-18T09:32:48;0.90;;;0.90;;
17614;SDS011;8926;49.720;6.576;2022-07-18T09:35:19;2.20;;;1.07;;
17614;SDS011;8926;49.720;6.576;2022-07-18T09:37:54;1.00;;;0.80;;
17614;SDS011;8926;49.720;6.576;2022-07-18T09:42:51;0.50;;;0.50;;
17614;SDS011;8926;49.720;6.576;2022-07-18T09:46:18;0.80;;;0.80;;
17614;SDS011;8926;49.720;6.576;2022-07-18T09:48:15;0.50;;;0.50;;
17614;SDS011;8926;49.720;6.576;2022-07-18T09:50:53;1.63;;;0.70;;
17614;SDS011;8926;49.720;6.576;2022-07-18T09:53:35;0.70;;;0.70;;
17614;SDS011;8926;49.720;6.576;2022-07-18T09:58:30;1.40;;;0.80;;
17614;SDS011;8926;49.720;6.576;2022-07-18T10:00:57;0.77;;;0.50;;
17614;SDS011;8926;49.720;6.576;2022-07-18T10:03:23;1.07;;;0.80;;
17614;SDS011;8926;49.720;6.576;2022-07-18T10:05:50;0.37;;;0.37;;
17614;SDS011;8926;49.720;6.576;2022-07-18T10:08:18;0.70;;;0.53;;
17614;SDS011;8926;49.720;6.576;2022-07-18T10:10:46;1.47;;;0.70;;
17614;SDS011;8926;49.720;6.576;2022-07-18T10:13:13;0.60;;;0.60;;
17614;SDS011;8926;49.720;6.576;2022-07-18T10:15:41;0.60;;;0.60;;
17614;SDS011;8926;49.720;6.576;2022-07-18T10:18:10;0.40;;;0.40;;
17614;SDS011;8926;49.720;6.576;2022-07-18T10:20:45;0.63;;;0.50;;
17614;SDS011;8926;49.720;6.576;2022-07-18T10:31:22;1.27;;;0.70;;
17614;SDS011;8926;49.720;6.576;2022-07-18T10:33:51;2.63;;;0.97;;
17614;SDS011;8926;49.720;6.576;2022-07-18T10:36:17;0.70;;;0.70;;
17614;SDS011;8926;49.720;6.576;2022-07-18T10:41:32;0.80;;;0.70;;
17614;SDS011;8926;49.720;6.576;2022-07-18T10:57:28;0.60;;;0.60;;
17614;SDS011;8926;49.720;6.576;2022-07-18T10:59:58;1.00;;;0.90;;
17614;SDS011;8926;49.720;6.576;2022-07-18T11:02:39;1.10;;;1.00;;
17614;SDS011;8926;49.720;6.576;2022-07-18T11:16:03;1.40;;;0.87;;
17614;SDS011;8926;49.720;6.576;2022-07-18T11:18:31;0.87;;;0.87;;
17614;SDS011;8926;49.720;6.576;2022-07-18T11:20:57;0.50;;;0.50;;
17614;SDS011;8926;49.720;6.576;2022-07-18T11:23:24;1.27;;;0.60;;
17614;SDS011;8926;49.720;6.576;2022-07-18T11:25:51;0.40;;;0.40;;
17614;SDS011;8926;49.720;6.576;2022-07-18T11:28:21;0.87;;;0.67;;
17614;SDS011;8926;49.720;6.576;2022-07-18T11:33:33;1.03;;;0.60;;
17614;SDS011;8926;49.720;6.576;2022-07-18T11:36:05;1.17;;;0.60;;
17614;SDS011;8926;49.720;6.576;2022-07-18T11:38:31;0.93;;;0.60;;
17614;SDS011;8926;49.720;6.576;2022-07-18T11:40:57;0.57;;;0.57;;
17614;SDS011;8926;49.720;6.576;2022-07-18T11:43:23;0.53;;;0.53;;
17614;SDS011;8926;49.720;6.576;2022-07-18T11:48:46;0.67;;;0.63;;
17614;SDS011;8926;49.720;6.576;2022-07-18T11:51:13;1.43;;;0.70;;
17614;SDS011;8926;49.720;6.576;2022-07-18T11:53:44;0.60;;;0.60;;
17614;SDS011;8926;49.720;6.576;2022-07-18T11:56:11;1.23;;;0.80;;
17614;SDS011;8926;49.720;6.576;2022-07-18T11:58:37;0.60;;;0.60;;
17614;SDS011;8926;49.720;6.576;2022-07-18T12:01:04;0.90;;;0.70;;
17614;SDS011;8926;49.720;6.576;2022-07-18T12:03:30;0.67;;;0.67;;
17614;SDS011;8926;49.720;6.576;2022-07-18T12:05:56;0.47;;;0.47;;
17614;SDS011;8926;49.720;6.576;2022-07-18T12:08:40;0.67;;;0.50;;
17614;SDS011;8926;49.720;6.576;2022-07-18T12:13:48;2.13;;;1.00;;
17614;SDS011;8926;49.720;6.576;2022-07-18T12:16:32;1.43;;;1.00;;
17614;SDS011;8926;49.720;6.576;2022-07-18T12:19:08;1.27;;;0.90;;
17614;SDS011;8926;49.720;6.576;2022-07-18T12:21:49;0.60;;;0.60;;
17614;SDS011;8926;49.720;6.576;2022-07-18T12:24:24;0.93;;;0.60;;
17614;SDS011;8926;49.720;6.576;2022-07-18T12:27:18;0.80;;;0.80;;
17614;SDS011;8926;49.720;6.576;2022-07-18T12:32:44;0.70;;;0.70;;
17614;SDS011;8926;49.720;6.576;2022-07-18T12:37:58;1.13;;;0.90;;
17614;SDS011;8926;49.720;6.576;2022-07-18T12:40:47;1.30;;;0.90;;
17614;SDS011;8926;49.720;6.576;2022-07-18T12:43:34;1.00;;;0.90;;
17614;SDS011;8926;49.720;6.576;2022-07-18T12:46:07;1.20;;;1.00;;
17614;SDS011;8926;49.720;6.576;2022-07-18T12:48:34;2.23;;;1.00;;
17614;SDS011;8926;49.720;6.576;2022-07-18T12:51:04;1.57;;;0.80;;
17614;SDS011;8926;49.720;6.576;2022-07-18T12:53:32;0.80;;;0.80;;
17614;SDS011;8926;49.720;6.576;2022-07-18T12:55:59;0.93;;;0.77;;
17614;SDS011;8926;49.720;6.576;2022-07-18T12:58:25;1.20;;;0.90;;
17614;SDS011;8926;49.720;6.576;2022-07-18T13:00:50;0.90;;;0.83;;
17614;SDS011;8926;49.720;6.576;2022-07-18T13:03:16;1.33;;;0.83;;
17614;SDS011;8926;49.720;6.576;2022-07-18T13:05:42;2.33;;;1.17;;
17614;SDS011;8926;49.720;6.576;2022-07-18T13:08:07;0.63;;;0.60;;
17614;SDS011;8926;49.720;6.576;2022-07-18T13:10:35;1.50;;;1.40;;
17614;SDS011;8926;49.720;6.576;2022-07-18T13:13:01;1.10;;;0.90;;
17614;SDS011;8926;49.720;6.576;2022-07-18T13:15:28;1.20;;;0.80;;
17614;SDS011;8926;49.720;6.576;2022-07-18T13:17:53;0.77;;;0.70;;
17614;SDS011;8926;49.720;6.576;2022-07-18T13:20:19;0.47;;;0.47;;
17614;SDS011;8926;49.720;6.576;2022-07-18T13:22:44;0.50;;;0.50;;
17614;SDS011;8926;49.720;6.576;2022-07-18T13:25:10;0.70;;;0.70;;
17614;SDS011;8926;49.720;6.576;2022-07-18T13:27:36;1.30;;;0.60;;
17614;SDS011;8926;49.720;6.576;2022-07-18T13:30:03;0.80;;;0.63;;
17614;SDS011;8926;49.720;6.576;2022-07-18T13:32:29;0.50;;;0.50;;
17614;SDS011;8926;49.720;6.576;2022-07-18T13:34:55;1.57;;;0.73;;
17614;SDS011;8926;49.720;6.576;2022-07-18T13:37:21;0.90;;;0.90;;
17614;SDS011;8926;49.720;6.576;2022-07-18T13:39:46;0.60;;;0.60;;
17614;SDS011;8926;49.720;6.576;2022-07-18T13:42:12;0.90;;;0.73;;
17614;SDS011;8926;49.720;6.576;2022-07-18T13:44:37;0.73;;;0.73;;
17614;SDS011;8926;49.720;6.576;2022-07-18T13:47:02;0.80;;;0.80;;
17614;SDS011;8926;49.720;6.576;2022-07-18T13:49:28;0.70;;;0.70;;
17614;SDS011;8926;49.720;6.576;2022-07-18T13:51:53;0.60;;;0.60;;
17614;SDS011;8926;49.720;6.576;2022-07-18T13:54:18;0.80;;;0.70;;
17614;SDS011;8926;49.720;6.576;2022-07-18T13:56:44;0.67;;;0.50;;
17614;SDS011;8926;49.720;6.576;2022-07-18T13:59:10;0.33;;;0.33;;
17614;SDS011;8926;49.720;6.576;2022-07-18T14:01:36;0.40;;;0.40;;
17614;SDS011;8926;49.720;6.576;2022-07-18T14:04:01;0.47;;;0.47;;
17614;SDS011;8926;49.720;6.576;2022-07-18T14:06:26;1.67;;;0.60;;
17614;SDS011;8926;49.720;6.576;2022-07-18T14:08:52;0.60;;;0.60;;
17614;SDS011;8926;49.720;6.576;2022-07-18T14:11:17;0.60;;;0.60;;
17614;SDS011;8926;49.720;6.576;2022-07-18T14:13:43;0.53;;;0.53;;
17614;SDS011;8926;49.720;6.576;2022-07-18T14:16:08;0.50;;;0.50;;
17614;SDS011;8926;49.720;6.576;2022-07-18T14:18:34;0.50;;;0.50;;
17614;SDS011;8926;49.720;6.576;2022-07-18T14:20:59;0.70;;;0.70;;
17614;SDS011;8926;49.720;6.576;2022-07-18T14:23:24;0.70;;;0.70;;
17614;SDS011;8926;49.720;6.576;2022-07-18T14:25:49;1.53;;;0.60;;
17614;SDS011;8926;49.720;6.576;2022-07-18T14:28:15;0.50;;;0.50;;
17614;SDS011;8926;49.720;6.576;2022-07-18T14:30:40;0.60;;;0.60;;
17614;SDS011;8926;49.720;6.576;2022-07-18T14:33:05;0.73;;;0.60;;
17614;SDS011;8926;49.720;6.576;2022-07-18T14:35:31;0.50;;;0.50;;
17614;SDS011;8926;49.720;6.576;2022-07-18T14:37:56;1.37;;;0.50;;
17614;SDS011;8926;49.720;6.576;2022-07-18T14:40:21;1.43;;;0.50;;
17614;SDS011;8926;49.720;6.576;2022-07-18T14:42:47;0.57;;;0.43;;
17614;SDS011;8926;49.720;6.576;2022-07-18T14:45:13;0.40;;;0.40;;
17614;SDS011;8926;49.720;6.576;2022-07-18T14:47:39;1.37;;;0.83;;
17614;SDS011;8926;49.720;6.576;2022-07-18T14:50:04;0.60;;;0.60;;
17614;SDS011;8926;49.720;6.576;2022-07-18T14:52:31;0.93;;;0.50;;
17614;SDS011;8926;49.720;6.576;2022-07-18T14:54:56;0.40;;;0.40;;
17614;SDS011;8926;49.720;6.576;2022-07-18T14:57:22;0.67;;;0.50;;
17614;SDS011;8926;49.720;6.576;2022-07-18T14:59:47;0.80;;;0.77;;
17614;SDS011;8926;49.720;6.576;2022-07-18T15:02:12;0.83;;;0.60;;
17614;SDS011;8926;49.720;6.576;2022-07-18T15:04:39;0.50;;;0.50;;
17614;SDS011;8926;49.720;6.576;2022-07-18T15:07:05;0.77;;;0.40;;
17614;SDS011;8926;49.720;6.576;2022-07-18T15:09:30;0.47;;;0.47;;
17614;SDS011;8926;49.720;6.576;2022-07-18T15:11:55;0.77;;;0.50;;
17614;SDS011;8926;49.720;6.576;2022-07-18T15:14:21;0.47;;;0.47;;
17614;SDS011;8926;49.720;6.576;2022-07-18T15:16:46;0.53;;;0.53;;
17614;SDS011;8926;49.720;6.576;2022-07-18T15:19:13;0.30;;;0.30;;
17614;SDS011;8926;49.720;6.576;2022-07-18T15:21:38;0.40;;;0.40;;
17614;SDS011;8926;49.720;6.576;2022-07-18T15:24:03;0.30;;;0.30;;
17614;SDS011;8926;49.720;6.576;2022-07-18T15:26:29;0.40;;;0.40;;
17614;SDS011;8926;49.720;6.576;2022-07-18T15:28:54;0.30;;;0.30;;
17614;SDS011;8926;49.720;6.576;2022-07-18T15:31:19;0.50;;;0.50;;
17614;SDS011;8926;49.720;6.576;2022-07-18T15:33:45;0.50;;;0.50;;
17614;SDS011;8926;49.720;6.576;2022-07-18T15:36:10;0.50;;;0.50;;
17614;SDS011;8926;49.720;6.576;2022-07-18T15:38:36;0.40;;;0.30;;
17614;SDS011;8926;49.720;6.576;2022-07-18T15:41:04;0.30;;;0.30;;
17614;SDS011;8926;49.720;6.576;2022-07-18T15:43:31;0.67;;;0.30;;
17614;SDS011;8926;49.720;6.576;2022-07-18T15:45:56;0.20;;;0.20;;
17614;SDS011;8926;49.720;6.576;2022-07-18T15:48:22;0.30;;;0.30;;
17614;SDS011;8926;49.720;6.576;2022-07-18T15:50:47;0.30;;;0.30;;
17614;SDS011;8926;49.720;6.576;2022-07-18T15:53:12;0.70;;;0.50;;
17614;SDS011;8926;49.720;6.576;2022-07-18T15:55:38;1.10;;;0.67;;
17614;SDS011;8926;49.720;6.576;2022-07-18T15:58:03;0.70;;;0.60;;
17614;SDS011;8926;49.720;6.576;2022-07-18T16:00:28;0.47;;;0.40;;
17614;SDS011;8926;49.720;6.576;2022-07-18T16:02:54;0.20;;;0.20;;
17614;SDS011;8926;49.720;6.576;2022-07-18T16:05:19;0.30;;;0.30;;